createdAt,value
2022-10-18T00:02:56.749Z,14.70
2022-10-18T00:07:59.184Z,15.35
2022-10-18T00:13:01.394Z,14.00
2022-10-18T00:18:03.707Z,19.58
2022-10-18T00:23:05.909Z,14.55
2022-10-18T00:28:08.286Z,21.52
2022-10-18T00:33:10.479Z,15.50
2022-10-18T00:38:12.873Z,18.70
2022-10-18T00:43:17.926Z,16.90
2022-10-18T00:48:21.378Z,14.35
2022-10-18T00:53:24.189Z,19.33
2022-10-18T00:58:26.427Z,15.70
2022-10-18T01:03:28.817Z,19.08
2022-10-18T01:08:51.155Z,13.38
2022-10-18T01:14:08.456Z,13.95
2022-10-18T01:19:57.582Z,18.80
2022-10-18T01:25:21.529Z,11.48
2022-10-18T01:30:37.246Z,14.80
2022-10-18T01:35:45.044Z,16.25
2022-10-18T01:40:51.285Z,22.00
2022-10-18T01:45:56.168Z,14.65
2022-10-18T01:50:58.686Z,11.55
2022-10-18T01:56:27.066Z,17.60
2022-10-18T02:01:34.453Z,13.02
2022-10-18T02:06:42.810Z,11.25
2022-10-18T02:11:46.934Z,10.50
2022-10-18T02:16:57.212Z,24.65
2022-10-18T02:22:01.059Z,12.27
2022-10-18T02:27:03.689Z,12.52
2022-10-18T02:32:27.082Z,12.77
2022-10-18T02:37:35.638Z,9.68
2022-10-18T02:42:48.503Z,11.93
2022-10-18T02:47:50.646Z,13.07
2022-10-18T02:52:52.851Z,11.00
2022-10-18T02:57:55.159Z,11.27
2022-10-18T03:02:57.335Z,11.48
2022-10-18T03:07:59.725Z,13.05
2022-10-18T03:13:02.119Z,14.02
2022-10-18T03:18:04.723Z,10.60
2022-10-18T03:23:07.671Z,11.15
2022-10-18T03:28:10.071Z,13.43
2022-10-18T03:33:12.279Z,10.30
2022-10-18T03:38:14.461Z,18.55
2022-10-18T03:43:16.739Z,14.27
2022-10-18T03:48:18.886Z,12.70
2022-10-18T03:53:21.157Z,18.48
2022-10-18T03:58:24.147Z,17.50
2022-10-18T04:03:26.412Z,15.85
2022-10-18T04:08:28.576Z,15.40
2022-10-18T04:13:30.738Z,21.80
2022-10-18T04:18:33.139Z,16.10
2022-10-18T04:23:37.988Z,27.60
2022-10-18T04:28:41.310Z,25.63
2022-10-18T04:33:43.497Z,29.98
2022-10-18T04:38:45.655Z,26.35
2022-10-18T04:43:48.016Z,22.35
2022-10-18T04:48:50.354Z,23.40
2022-10-18T04:53:52.645Z,24.50
2022-10-18T04:58:54.873Z,19.58
2022-10-18T05:03:57.054Z,21.77
2022-10-18T05:08:59.229Z,39.65
2022-10-18T05:14:01.550Z,38.10
2022-10-18T05:19:06.060Z,33.72
2022-10-18T05:24:08.294Z,38.15
2022-10-18T05:29:10.845Z,33.33
2022-10-18T05:34:13.141Z,28.50
2022-10-18T05:39:15.528Z,36.47
2022-10-18T05:44:17.767Z,25.27
2022-10-18T05:49:20.226Z,23.48
2022-10-18T05:54:22.585Z,27.38
2022-10-18T05:59:25.121Z,31.77
2022-10-18T06:04:27.347Z,26.52
2022-10-18T06:09:31.234Z,21.48
2022-10-18T06:14:33.557Z,12.88
2022-10-18T06:19:35.758Z,17.67
2022-10-18T06:24:38.083Z,17.48
2022-10-18T06:29:41.235Z,10.93
2022-10-18T06:34:43.623Z,12.25
2022-10-18T06:39:45.818Z,10.73
2022-10-18T06:44:48.284Z,11.57
2022-10-18T06:49:50.730Z,11.90
2022-10-18T06:54:53.299Z,17.52
2022-10-18T06:59:55.508Z,19.60
2022-10-18T07:04:57.902Z,21.38
2022-10-18T07:10:00.095Z,20.65
2022-10-18T07:15:06.813Z,13.05
2022-10-18T07:20:11.425Z,12.70
2022-10-18T07:25:13.693Z,11.88
2022-10-18T07:30:16.113Z,11.43
2022-10-18T07:35:18.961Z,23.33
2022-10-18T07:40:21.294Z,26.48
2022-10-18T07:45:23.725Z,22.55
2022-10-18T07:50:25.871Z,11.18
2022-10-18T07:55:28.166Z,11.73
2022-10-18T08:00:30.464Z,12.43
2022-10-18T08:10:40.661Z,16.13
2022-10-18T08:15:43.074Z,14.57
2022-10-18T08:20:46.062Z,25.00
2022-10-18T08:25:48.709Z,12.18
2022-10-18T08:30:50.918Z,11.68
2022-10-18T08:35:57.512Z,7.45
2022-10-18T08:41:02.892Z,11.02
2022-10-18T08:46:05.499Z,12.95
2022-10-18T08:51:20.396Z,10.82
2022-10-18T08:56:24.956Z,10.77
2022-10-18T09:01:57.515Z,9.02
2022-10-18T09:07:24.552Z,9.32
2022-10-18T09:13:07.539Z,7.38
2022-10-18T09:18:20.146Z,9.13
2022-10-18T09:23:23.506Z,8.93
2022-10-18T09:28:53.854Z,9.82
2022-10-18T09:34:12.199Z,5.22
2022-10-18T09:39:23.216Z,7.55
2022-10-18T09:44:30.911Z,8.25
2022-10-18T09:49:57.161Z,6.82
2022-10-18T09:55:09.809Z,7.85
2022-10-18T10:00:21.617Z,6.82
2022-10-18T10:05:23.926Z,7.20
2022-10-18T10:10:28.240Z,11.18
2022-10-18T10:15:35.277Z,11.82
2022-10-18T10:20:47.515Z,6.03
2022-10-18T10:30:54.834Z,9.40
2022-10-18T10:36:02.021Z,8.75
2022-10-18T10:41:04.327Z,6.95
2022-10-18T10:46:16.100Z,5.95
2022-10-18T10:51:39.920Z,6.97
2022-10-18T10:57:01.764Z,5.72
2022-10-18T11:02:32.164Z,7.22
2022-10-18T11:07:36.853Z,7.72
2022-10-18T11:12:44.131Z,5.63
2022-10-18T11:18:01.059Z,5.82
2022-10-18T11:23:07.919Z,7.88
2022-10-18T11:28:10.862Z,5.32
2022-10-18T11:33:29.530Z,6.65
2022-10-18T11:38:46.578Z,4.60
2022-10-18T11:44:02.091Z,4.18
2022-10-18T11:49:35.587Z,6.32
2022-10-18T11:54:49.755Z,4.18
2022-10-18T12:00:03.810Z,4.80
2022-10-18T12:05:24.219Z,6.28
2022-10-18T12:10:45.704Z,5.55
2022-10-18T12:15:54.170Z,6.72
2022-10-18T12:20:58.700Z,7.50
2022-10-18T12:26:07.390Z,6.32
2022-10-18T12:31:35.459Z,6.03
2022-10-18T12:37:11.385Z,6.60
2022-10-18T12:42:25.742Z,6.25
2022-10-18T12:47:30.489Z,7.75
2022-10-18T12:52:37.553Z,4.38
2022-10-18T12:58:04.107Z,8.02
2022-10-18T13:03:18.374Z,5.03
2022-10-18T13:08:34.379Z,5.05
2022-10-18T13:14:20.718Z,5.65
2022-10-18T13:19:34.855Z,4.45
2022-10-18T13:25:19.524Z,8.20
2022-10-18T13:30:33.931Z,5.95
2022-10-18T13:35:57.662Z,6.57
2022-10-18T13:41:21.837Z,3.90
2022-10-18T13:46:33.099Z,7.88
2022-10-18T13:51:53.531Z,6.63
2022-10-18T13:57:37.153Z,7.03
2022-10-18T14:02:51.752Z,5.63
2022-10-18T14:08:10.691Z,8.73
2022-10-18T14:13:22.173Z,9.30
2022-10-18T14:18:35.243Z,5.70
2022-10-18T14:23:43.819Z,6.13
2022-10-18T14:29:01.962Z,7.55
2022-10-18T14:34:04.471Z,7.97
2022-10-18T14:39:08.539Z,4.55
2022-10-18T14:44:19.965Z,7.03
2022-10-18T14:49:22.831Z,4.72
2022-10-18T14:54:34.119Z,4.10
2022-10-18T14:59:52.110Z,7.55
2022-10-18T15:05:05.306Z,5.35
2022-10-18T15:10:15.181Z,4.40
2022-10-18T15:15:24.559Z,5.32
2022-10-18T15:20:32.011Z,13.82
2022-10-18T15:25:36.260Z,16.40
2022-10-18T15:30:44.146Z,9.88
2022-10-18T15:35:46.562Z,9.70
2022-10-18T15:40:48.789Z,10.65
2022-10-18T15:45:53.826Z,8.13
2022-10-18T15:50:57.837Z,9.70
2022-10-18T15:56:35.003Z,6.30
2022-10-18T16:01:43.202Z,5.35
2022-10-18T16:06:45.413Z,10.93
2022-10-18T16:11:54.281Z,9.95
2022-10-18T16:17:05.042Z,8.20
2022-10-18T16:22:07.584Z,5.23
2022-10-18T16:27:10.829Z,7.63
2022-10-18T16:32:13.014Z,14.05
2022-10-18T16:37:15.520Z,8.38
2022-10-18T16:42:17.655Z,14.13
2022-10-18T16:47:20.001Z,9.15
2022-10-18T16:52:22.446Z,12.57
2022-10-18T16:57:24.659Z,9.23
2022-10-18T17:02:26.825Z,8.50
2022-10-18T17:07:29.007Z,8.57
2022-10-18T17:12:31.406Z,14.15
2022-10-18T17:17:34.181Z,11.07
2022-10-18T17:22:36.819Z,11.77
2022-10-18T17:27:39.184Z,14.10
2022-10-18T17:32:45.085Z,19.48
2022-10-18T17:37:52.892Z,24.83
2022-10-18T17:42:55.404Z,32.97
2022-10-18T17:47:57.687Z,41.15
2022-10-18T17:53:00.060Z,37.10
2022-10-18T17:58:02.666Z,29.02
2022-10-18T18:03:05.115Z,28.52
2022-10-18T18:08:07.494Z,33.33
2022-10-18T18:13:09.699Z,28.38
2022-10-18T18:18:11.903Z,32.20
2022-10-18T18:23:14.287Z,27.15
2022-10-18T18:28:16.638Z,31.15
2022-10-18T18:33:18.889Z,24.48
2022-10-18T18:38:21.074Z,35.75
2022-10-18T18:43:23.622Z,29.65
2022-10-18T18:48:27.599Z,40.13
2022-10-18T18:53:30.344Z,37.30
2022-10-18T18:58:33.038Z,35.20
2022-10-18T19:03:36.076Z,30.02
2022-10-18T19:08:40.453Z,29.40
2022-10-18T19:13:43.280Z,25.13
2022-10-18T19:18:58.177Z,35.40
2022-10-18T19:24:01.165Z,37.95
2022-10-18T19:29:13.115Z,38.60
2022-10-18T19:34:16.956Z,33.10
2022-10-18T19:39:24.730Z,30.77
2022-10-18T19:44:30.758Z,28.67
2022-10-18T19:49:33.266Z,29.55
2022-10-18T19:54:35.838Z,26.00
2022-10-18T19:59:38.362Z,19.55
2022-10-18T20:04:40.736Z,20.35
2022-10-18T20:09:42.945Z,25.73
2022-10-18T20:14:45.431Z,20.75
2022-10-18T20:19:49.232Z,18.30
2022-10-18T20:24:52.183Z,23.98
2022-10-18T20:29:54.498Z,43.53
2022-10-18T20:34:56.850Z,45.22
2022-10-18T20:40:00.556Z,37.72
2022-10-18T20:50:06.524Z,32.67
2022-10-18T20:55:08.899Z,28.40
2022-10-18T21:00:12.241Z,30.02
2022-10-18T21:05:16.945Z,33.33
2022-10-18T21:10:19.219Z,32.60
2022-10-18T21:15:21.806Z,26.33
2022-10-18T21:20:23.994Z,30.35
2022-10-18T21:25:26.228Z,28.33
2022-10-18T21:30:28.783Z,28.58
2022-10-18T21:35:36.948Z,51.72
2022-10-18T21:40:44.974Z,32.17
2022-10-18T21:45:47.221Z,29.95
2022-10-18T21:50:49.433Z,40.90
2022-10-18T21:55:51.918Z,33.28
2022-10-18T22:00:54.288Z,40.38
2022-10-18T22:06:13.770Z,36.25
2022-10-18T22:11:17.115Z,33.53
2022-10-18T22:16:19.815Z,37.58
2022-10-18T22:21:22.313Z,32.28
2022-10-18T22:26:28.718Z,31.38
2022-10-18T22:31:33.643Z,27.67
2022-10-18T22:36:36.049Z,27.45
2022-10-18T22:41:38.349Z,30.20
2022-10-18T22:46:42.059Z,32.88
2022-10-18T22:51:44.369Z,36.03
2022-10-18T22:56:46.579Z,27.95
2022-10-18T23:01:48.790Z,32.78
2022-10-18T23:06:51.145Z,28.90
2022-10-18T23:11:53.430Z,30.90
2022-10-18T23:16:55.637Z,31.45
2022-10-18T23:21:57.812Z,28.17
2022-10-18T23:27:00.152Z,31.00
2022-10-18T23:32:02.401Z,25.98
2022-10-18T23:37:04.580Z,27.15
2022-10-18T23:42:06.779Z,40.25
2022-10-18T23:47:09.201Z,38.30
2022-10-18T23:52:11.407Z,32.55
2022-10-18T23:57:13.798Z,32.00
